Terminal Aerodrome Forecast
Issued by NWS Sterling, VA

Current Version | Previous Version | Graphics & Text | Print | Product List | Glossary On
Versions: 1 2 3 4 5 6 7 8 9 10 11 12 13 14 15 16 17 18 19 20 21 22
000
FTUS41 KLWX 190900 AAA
TAFIAD
TAF AMD
KIAD 190900Z 1909/2012 VRB03KT P6SM -RA BKN070 OVC130
     FM191100 09003KT P6SM OVC090
     FM191500 15007KT P6SM SCT050 BKN120
     FM200600 VRB03KT P6SM SCT050 OVC090=

USA.gov is the U.S. government's official web portal to all federal, state and local government web resources and services.